sensor_id;sensor_type;location;lat;lon;timestamp;pressure;altitude;pressure_sealevel;temperature;humidity
56737;BME280;42618;51.226;4.910;2023-05-12T00:01:54;49729.00;;;-146.94;100.00
56737;BME280;42618;51.226;4.910;2023-05-12T00:04:20;49703.09;;;-146.94;100.00
56737;BME280;42618;51.226;4.910;2023-05-12T00:06:47;49770.88;;;-146.94;100.00
56737;BME280;42618;51.226;4.910;2023-05-12T00:09:14;49756.91;;;-146.94;100.00
56737;BME280;42618;51.226;4.910;2023-05-12T00:11:41;49719.03;;;-146.94;100.00
56737;BME280;42618;51.226;4.910;2023-05-12T00:14:07;49736.97;;;-146.94;100.00
56737;BME280;42618;51.226;4.910;2023-05-12T00:16:34;49736.97;;;-146.94;100.00
56737;BME280;42618;51.226;4.910;2023-05-12T00:19:01;49758.91;;;-146.94;100.00
56737;BME280;42618;51.226;4.910;2023-05-12T00:21:28;49754.91;;;-146.94;100.00
56737;BME280;42618;51.226;4.910;2023-05-12T00:23:55;49766.88;;;-146.94;100.00
56737;BME280;42618;51.226;4.910;2023-05-12T00:26:21;49703.09;;;-146.94;100.00
56737;BME280;42618;51.226;4.910;2023-05-12T00:28:49;49723.03;;;-146.94;100.00
56737;BME280;42618;51.226;4.910;2023-05-12T00:31:16;49695.09;;;-146.94;100.00
56737;BME280;42618;51.226;4.910;2023-05-12T00:33:42;49738.97;;;-146.94;100.00
56737;BME280;42618;51.226;4.910;2023-05-12T00:36:09;49740.97;;;-146.94;100.00
56737;BME280;42618;51.226;4.910;2023-05-12T00:38:36;49727.00;;;-146.94;100.00
56737;BME280;42618;51.226;4.910;2023-05-12T00:41:03;49723.03;;;-146.94;100.00
56737;BME280;42618;51.226;4.910;2023-05-12T00:43:30;49752.91;;;-146.94;100.00
56737;BME280;42618;51.226;4.910;2023-05-12T00:45:58;49727.00;;;-146.94;100.00
56737;BME280;42618;51.226;4.910;2023-05-12T00:48:25;49758.91;;;-146.94;100.00
56737;BME280;42618;51.226;4.910;2023-05-12T00:50:53;49729.00;;;-146.94;100.00
56737;BME280;42618;51.226;4.910;2023-05-12T00:53:20;49740.97;;;-146.94;100.00
56737;BME280;42618;51.226;4.910;2023-05-12T00:55:47;49725.00;;;-146.94;100.00
56737;BME280;42618;51.226;4.910;2023-05-12T00:58:15;49734.97;;;-146.94;100.00
56737;BME280;42618;51.226;4.910;2023-05-12T01:00:42;49770.88;;;-146.94;100.00
56737;BME280;42618;51.226;4.910;2023-05-12T01:03:08;49752.91;;;-146.94;100.00
56737;BME280;42618;51.226;4.910;2023-05-12T01:05:46;49721.03;;;-146.94;100.00
56737;BME280;42618;51.226;4.910;2023-05-12T01:08:15;49752.91;;;-146.94;100.00
56737;BME280;42618;51.226;4.910;2023-05-12T01:10:43;49746.94;;;-146.94;100.00
56737;BME280;42618;51.226;4.910;2023-05-12T01:13:12;49727.00;;;-146.94;100.00
56737;BME280;42618;51.226;4.910;2023-05-12T01:15:41;49774.84;;;-146.94;100.00
56737;BME280;42618;51.226;4.910;2023-05-12T01:18:11;49727.00;;;-146.94;100.00
56737;BME280;42618;51.226;4.910;2023-05-12T01:20:41;49740.97;;;-146.94;100.00
56737;BME280;42618;51.226;4.910;2023-05-12T01:23:09;49744.94;;;-146.94;100.00
56737;BME280;42618;51.226;4.910;2023-05-12T01:25:37;49734.97;;;-146.94;100.00
56737;BME280;42618;51.226;4.910;2023-05-12T01:28:05;49766.88;;;-146.94;100.00
56737;BME280;42618;51.226;4.910;2023-05-12T01:30:35;49731.00;;;-146.94;100.00
56737;BME280;42618;51.226;4.910;2023-05-12T01:33:03;49742.94;;;-146.94;100.00
56737;BME280;42618;51.226;4.910;2023-05-12T01:35:30;49762.88;;;-146.94;100.00
56737;BME280;42618;51.226;4.910;2023-05-12T01:37:58;49754.91;;;-146.94;100.00
56737;BME280;42618;51.226;4.910;2023-05-12T01:40:25;49762.88;;;-146.94;100.00
56737;BME280;42618;51.226;4.910;2023-05-12T01:42:54;49725.00;;;-146.94;100.00
56737;BME280;42618;51.226;4.910;2023-05-12T01:45:21;49776.84;;;-146.94;100.00
56737;BME280;42618;51.226;4.910;2023-05-12T01:47:49;49762.88;;;-146.94;100.00
56737;BME280;42618;51.226;4.910;2023-05-12T01:50:16;49734.97;;;-146.94;100.00
56737;BME280;42618;51.226;4.910;2023-05-12T01:52:44;49746.94;;;-146.94;100.00
56737;BME280;42618;51.226;4.910;2023-05-12T01:55:14;49713.06;;;-146.94;100.00
56737;BME280;42618;51.226;4.910;2023-05-12T01:57:59;49748.94;;;-146.94;100.00
56737;BME280;42618;51.226;4.910;2023-05-12T02:00:29;49768.88;;;-146.94;100.00
56737;BME280;42618;51.226;4.910;2023-05-12T02:02:57;49766.88;;;-146.94;100.00
56737;BME280;42618;51.226;4.910;2023-05-12T02:05:24;49786.81;;;-146.94;100.00
56737;BME280;42618;51.226;4.910;2023-05-12T02:07:51;49711.06;;;-146.94;100.00
56737;BME280;42618;51.226;4.910;2023-05-12T02:10:18;49740.97;;;-146.94;100.00
56737;BME280;42618;51.226;4.910;2023-05-12T02:12:47;49774.84;;;-146.94;100.00
56737;BME280;42618;51.226;4.910;2023-05-12T02:15:14;49740.97;;;-146.94;100.00
56737;BME280;42618;51.226;4.910;2023-05-12T02:17:44;49758.91;;;-146.94;100.00
56737;BME280;42618;51.226;4.910;2023-05-12T02:20:12;49719.03;;;-146.94;100.00
56737;BME280;42618;51.226;4.910;2023-05-12T02:22:38;49762.88;;;-146.94;100.00
56737;BME280;42618;51.226;4.910;2023-05-12T02:25:05;49734.97;;;-146.94;100.00
56737;BME280;42618;51.226;4.910;2023-05-12T02:27:33;49776.84;;;-146.94;100.00
56737;BME280;42618;51.226;4.910;2023-05-12T02:30:00;49760.91;;;-146.94;100.00
56737;BME280;42618;51.226;4.910;2023-05-12T02:32:27;49766.88;;;-146.94;100.00
56737;BME280;42618;51.226;4.910;2023-05-12T02:34:55;49752.91;;;-146.94;100.00
56737;BME280;42618;51.226;4.910;2023-05-12T02:37:22;49727.00;;;-146.94;100.00
56737;BME280;42618;51.226;4.910;2023-05-12T02:39:49;49748.94;;;-146.94;100.00
56737;BME280;42618;51.226;4.910;2023-05-12T02:42:17;49770.88;;;-146.94;100.00
56737;BME280;42618;51.226;4.910;2023-05-12T02:44:43;49750.94;;;-146.94;100.00
56737;BME280;42618;51.226;4.910;2023-05-12T02:47:10;49774.84;;;-146.94;100.00
56737;BME280;42618;51.226;4.910;2023-05-12T02:49:37;49738.97;;;-146.94;100.00
56737;BME280;42618;51.226;4.910;2023-05-12T02:52:04;49750.94;;;-146.94;100.00
56737;BME280;42618;51.226;4.910;2023-05-12T02:54:31;49738.97;;;-146.94;100.00
56737;BME280;42618;51.226;4.910;2023-05-12T02:57:03;49754.91;;;-146.94;100.00
56737;BME280;42618;51.226;4.910;2023-05-12T02:59:30;49782.81;;;-146.94;100.00
56737;BME280;42618;51.226;4.910;2023-05-12T03:01:57;49772.84;;;-146.94;100.00
56737;BME280;42618;51.226;4.910;2023-05-12T03:04:24;49778.84;;;-146.94;100.00
56737;BME280;42618;51.226;4.910;2023-05-12T03:06:51;49731.00;;;-146.94;100.00
56737;BME280;42618;51.226;4.910;2023-05-12T03:09:17;49758.91;;;-146.94;100.00
56737;BME280;42618;51.226;4.910;2023-05-12T03:11:44;49758.91;;;-146.94;100.00
56737;BME280;42618;51.226;4.910;2023-05-12T03:14:11;49746.94;;;-146.94;100.00
56737;BME280;42618;51.226;4.910;2023-05-12T03:16:38;49754.91;;;-146.94;100.00
56737;BME280;42618;51.226;4.910;2023-05-12T03:19:05;49774.84;;;-146.94;100.00
56737;BME280;42618;51.226;4.910;2023-05-12T03:21:32;49774.84;;;-146.94;100.00
56737;BME280;42618;51.226;4.910;2023-05-12T03:23:59;49782.81;;;-146.94;100.00
56737;BME280;42618;51.226;4.910;2023-05-12T03:26:26;49742.94;;;-146.94;100.00
56737;BME280;42618;51.226;4.910;2023-05-12T03:28:52;49762.88;;;-146.94;100.00
56737;BME280;42618;51.226;4.910;2023-05-12T03:31:19;49758.91;;;-146.94;100.00
56737;BME280;42618;51.226;4.910;2023-05-12T03:33:46;49788.81;;;-146.94;100.00
56737;BME280;42618;51.226;4.910;2023-05-12T03:36:13;49758.91;;;-146.94;100.00
56737;BME280;42618;51.226;4.910;2023-05-12T03:38:39;49762.88;;;-146.94;100.00
56737;BME280;42618;51.226;4.910;2023-05-12T03:41:07;49723.03;;;-146.94;100.00
56737;BME280;42618;51.226;4.910;2023-05-12T03:43:34;49814.72;;;-146.94;100.00
56737;BME280;42618;51.226;4.910;2023-05-12T03:46:02;49798.78;;;-146.94;100.00
56737;BME280;42618;51.226;4.910;2023-05-12T03:48:29;49778.84;;;-146.94;100.00
56737;BME280;42618;51.226;4.910;2023-05-12T03:50:56;49754.91;;;-146.94;100.00
56737;BME280;42618;51.226;4.910;2023-05-12T03:53:22;49778.84;;;-146.94;100.00
56737;BME280;42618;51.226;4.910;2023-05-12T03:55:49;49758.91;;;-146.94;100.00
56737;BME280;42618;51.226;4.910;2023-05-12T03:58:16;49770.88;;;-146.94;100.00
56737;BME280;42618;51.226;4.910;2023-05-12T04:00:44;49762.88;;;-146.94;100.00
56737;BME280;42618;51.226;4.910;2023-05-12T04:03:12;49760.91;;;-146.94;100.00
56737;BME280;42618;51.226;4.910;2023-05-12T04:05:38;49766.88;;;-146.94;100.00
56737;BME280;42618;51.226;4.910;2023-05-12T04:08:05;49782.81;;;-146.94;100.00
56737;BME280;42618;51.226;4.910;2023-05-12T04:10:40;49768.88;;;-146.94;100.00
56737;BME280;42618;51.226;4.910;2023-05-12T04:13:07;49758.91;;;-146.94;100.00
56737;BME280;42618;51.226;4.910;2023-05-12T04:15:34;49750.94;;;-146.94;100.00
56737;BME280;42618;51.226;4.910;2023-05-12T04:18:02;49800.78;;;-146.94;100.00
56737;BME280;42618;51.226;4.910;2023-05-12T04:20:29;49794.78;;;-146.94;100.00
56737;BME280;42618;51.226;4.910;2023-05-12T04:22:56;49774.84;;;-146.94;100.00
56737;BME280;42618;51.226;4.910;2023-05-12T04:25:23;49742.94;;;-146.94;100.00
56737;BME280;42618;51.226;4.910;2023-05-12T04:27:50;49744.94;;;-146.94;100.00
56737;BME280;42618;51.226;4.910;2023-05-12T04:30:16;49784.81;;;-146.94;100.00
56737;BME280;42618;51.226;4.910;2023-05-12T04:32:44;49786.81;;;-146.94;100.00
56737;BME280;42618;51.226;4.910;2023-05-12T04:35:10;49832.66;;;-146.94;100.00
56737;BME280;42618;51.226;4.910;2023-05-12T04:37:37;49788.81;;;-146.94;100.00
56737;BME280;42618;51.226;4.910;2023-05-12T04:40:06;49762.88;;;-146.94;100.00
56737;BME280;42618;51.226;4.910;2023-05-12T04:42:33;49798.78;;;-146.94;100.00
56737;BME280;42618;51.226;4.910;2023-05-12T04:45:00;49748.94;;;-146.94;100.00
56737;BME280;42618;51.226;4.910;2023-05-12T04:47:27;49808.75;;;-146.94;100.00
56737;BME280;42618;51.226;4.910;2023-05-12T04:49:55;49750.94;;;-146.94;100.00
56737;BME280;42618;51.226;4.910;2023-05-12T04:52:22;49774.84;;;-146.94;100.00
56737;BME280;42618;51.226;4.910;2023-05-12T04:54:50;49770.88;;;-146.94;100.00
56737;BME280;42618;51.226;4.910;2023-05-12T04:57:17;49804.75;;;-146.94;100.00
56737;BME280;42618;51.226;4.910;2023-05-12T04:59:44;49778.84;;;-146.94;100.00
56737;BME280;42618;51.226;4.910;2023-05-12T05:02:11;49808.75;;;-146.94;100.00
56737;BME280;42618;51.226;4.910;2023-05-12T05:04:38;49790.81;;;-146.94;100.00
56737;BME280;42618;51.226;4.910;2023-05-12T05:07:05;49796.78;;;-146.94;100.00
56737;BME280;42618;51.226;4.910;2023-05-12T05:09:32;49768.88;;;-146.94;100.00
56737;BME280;42618;51.226;4.910;2023-05-12T05:12:02;49729.00;;;-146.94;100.00
56737;BME280;42618;51.226;4.910;2023-05-12T05:14:28;49782.81;;;-146.94;100.00
56737;BME280;42618;51.226;4.910;2023-05-12T05:16:56;49770.88;;;-146.94;100.00
56737;BME280;42618;51.226;4.910;2023-05-12T05:19:23;49798.78;;;-146.94;100.00
56737;BME280;42618;51.226;4.910;2023-05-12T05:22:10;49784.81;;;-146.94;100.00
56737;BME280;42618;51.226;4.910;2023-05-12T05:24:37;49786.81;;;-146.94;100.00
56737;BME280;42618;51.226;4.910;2023-05-12T05:27:04;49790.81;;;-146.94;100.00
56737;BME280;42618;51.226;4.910;2023-05-12T05:29:31;49798.78;;;-146.94;100.00
56737;BME280;42618;51.226;4.910;2023-05-12T05:31:57;49744.94;;;-146.94;100.00
56737;BME280;42618;51.226;4.910;2023-05-12T05:34:24;49748.94;;;-146.94;100.00
56737;BME280;42618;51.226;4.910;2023-05-12T05:36:51;49762.88;;;-146.94;100.00
56737;BME280;42618;51.226;4.910;2023-05-12T05:39:17;49790.81;;;-146.94;100.00
56737;BME280;42618;51.226;4.910;2023-05-12T05:41:45;49768.88;;;-146.94;100.00
56737;BME280;42618;51.226;4.910;2023-05-12T05:44:12;49780.84;;;-146.94;100.00
56737;BME280;42618;51.226;4.910;2023-05-12T05:46:39;49790.81;;;-146.94;100.00
56737;BME280;42618;51.226;4.910;2023-05-12T05:49:06;49760.91;;;-146.94;100.00
56737;BME280;42618;51.226;4.910;2023-05-12T05:51:33;49794.78;;;-146.94;100.00
56737;BME280;42618;51.226;4.910;2023-05-12T05:53:59;49790.81;;;-146.94;100.00
56737;BME280;42618;51.226;4.910;2023-05-12T05:56:26;49766.88;;;-146.94;100.00
56737;BME280;42618;51.226;4.910;2023-05-12T05:58:53;49780.84;;;-146.94;100.00
56737;BME280;42618;51.226;4.910;2023-05-12T06:01:19;49770.88;;;-146.94;100.00
56737;BME280;42618;51.226;4.910;2023-05-12T06:03:46;49784.81;;;-146.94;100.00
56737;BME280;42618;51.226;4.910;2023-05-12T06:06:14;49792.78;;;-146.94;100.00
56737;BME280;42618;51.226;4.910;2023-05-12T06:08:41;49766.88;;;-146.94;100.00
56737;BME280;42618;51.226;4.910;2023-05-12T06:11:08;49768.88;;;-146.94;100.00
56737;BME280;42618;51.226;4.910;2023-05-12T06:13:34;49748.94;;;-146.94;100.00
56737;BME280;42618;51.226;4.910;2023-05-12T06:16:02;49786.81;;;-146.94;100.00
56737;BME280;42618;51.226;4.910;2023-05-12T06:18:29;49768.88;;;-146.94;100.00
56737;BME280;42618;51.226;4.910;2023-05-12T06:20:56;49796.78;;;-146.94;100.00
56737;BME280;42618;51.226;4.910;2023-05-12T06:23:22;49778.84;;;-146.94;100.00
56737;BME280;42618;51.226;4.910;2023-05-12T06:25:49;49778.84;;;-146.94;100.00
56737;BME280;42618;51.226;4.910;2023-05-12T06:28:16;49760.91;;;-146.94;100.00
56737;BME280;42618;51.226;4.910;2023-05-12T06:30:43;49790.81;;;-146.94;100.00
56737;BME280;42618;51.226;4.910;2023-05-12T06:33:09;49788.81;;;-146.94;100.00
56737;BME280;42618;51.226;4.910;2023-05-12T06:35:36;49800.78;;;-146.94;100.00
56737;BME280;42618;51.226;4.910;2023-05-12T06:38:04;49746.94;;;-146.94;100.00
56737;BME280;42618;51.226;4.910;2023-05-12T06:40:31;49778.84;;;-146.94;100.00
56737;BME280;42618;51.226;4.910;2023-05-12T06:42:58;49752.91;;;-146.94;100.00
56737;BME280;42618;51.226;4.910;2023-05-12T06:45:25;49800.78;;;-146.94;100.00
56737;BME280;42618;51.226;4.910;2023-05-12T06:47:52;49758.91;;;-146.94;100.00
56737;BME280;42618;51.226;4.910;2023-05-12T06:50:19;49798.78;;;-146.94;100.00
56737;BME280;42618;51.226;4.910;2023-05-12T06:52:50;49782.81;;;-146.94;100.00
56737;BME280;42618;51.226;4.910;2023-05-12T06:55:18;49778.84;;;-146.94;100.00
56737;BME280;42618;51.226;4.910;2023-05-12T06:57:46;49770.88;;;-146.94;100.00
56737;BME280;42618;51.226;4.910;2023-05-12T07:00:13;49782.81;;;-146.94;100.00
56737;BME280;42618;51.226;4.910;2023-05-12T07:02:40;49786.81;;;-146.94;100.00
56737;BME280;42618;51.226;4.910;2023-05-12T07:05:07;49740.97;;;-146.94;100.00
56737;BME280;42618;51.226;4.910;2023-05-12T07:07:34;49788.81;;;-146.94;100.00
56737;BME280;42618;51.226;4.910;2023-05-12T07:10:01;49766.88;;;-146.94;100.00
56737;BME280;42618;51.226;4.910;2023-05-12T07:12:28;49784.81;;;-146.94;100.00
56737;BME280;42618;51.226;4.910;2023-05-12T07:14:54;49756.91;;;-146.94;100.00
56737;BME280;42618;51.226;4.910;2023-05-12T07:17:21;49750.94;;;-146.94;100.00
56737;BME280;42618;51.226;4.910;2023-05-12T07:19:48;49754.91;;;-146.94;100.00
56737;BME280;42618;51.226;4.910;2023-05-12T07:22:15;49746.94;;;-146.94;100.00
56737;BME280;42618;51.226;4.910;2023-05-12T07:24:41;49792.78;;;-146.94;100.00
56737;BME280;42618;51.226;4.910;2023-05-12T07:27:08;49774.84;;;-146.94;100.00
56737;BME280;42618;51.226;4.910;2023-05-12T07:29:35;49754.91;;;-146.94;100.00
56737;BME280;42618;51.226;4.910;2023-05-12T07:32:02;49776.84;;;-146.94;100.00
56737;BME280;42618;51.226;4.910;2023-05-12T07:34:31;49774.84;;;-146.94;100.00
56737;BME280;42618;51.226;4.910;2023-05-12T07:36:57;49742.94;;;-146.94;100.00
56737;BME280;42618;51.226;4.910;2023-05-12T07:39:25;49736.97;;;-146.94;100.00
56737;BME280;42618;51.226;4.910;2023-05-12T07:41:52;49748.94;;;-146.94;100.00
56737;BME280;42618;51.226;4.910;2023-05-12T07:44:20;49750.94;;;-146.94;100.00
56737;BME280;42618;51.226;4.910;2023-05-12T07:46:47;49752.91;;;-146.94;100.00
56737;BME280;42618;51.226;4.910;2023-05-12T07:49:13;49746.94;;;-146.94;100.00
56737;BME280;42618;51.226;4.910;2023-05-12T07:51:40;49758.91;;;-146.94;100.00
56737;BME280;42618;51.226;4.910;2023-05-12T07:54:07;49762.88;;;-146.94;100.00
56737;BME280;42618;51.226;4.910;2023-05-12T07:56:34;49766.88;;;-146.94;100.00
56737;BME280;42618;51.226;4.910;2023-05-12T07:59:00;49790.81;;;-146.94;100.00
56737;BME280;42618;51.226;4.910;2023-05-12T08:01:27;49756.91;;;-146.94;100.00
56737;BME280;42618;51.226;4.910;2023-05-12T08:03:54;49758.91;;;-146.94;100.00
56737;BME280;42618;51.226;4.910;2023-05-12T08:06:21;49736.97;;;-146.94;100.00
56737;BME280;42618;51.226;4.910;2023-05-12T08:08:48;49752.91;;;-146.94;100.00
56737;BME280;42618;51.226;4.910;2023-05-12T08:11:15;49740.97;;;-146.94;100.00
56737;BME280;42618;51.226;4.910;2023-05-12T08:13:42;49770.88;;;-146.94;100.00
56737;BME280;42618;51.226;4.910;2023-05-12T08:16:08;49756.91;;;-146.94;100.00
56737;BME280;42618;51.226;4.910;2023-05-12T08:18:35;49740.97;;;-146.94;100.00
56737;BME280;42618;51.226;4.910;2023-05-12T08:21:02;49734.97;;;-146.94;100.00
56737;BME280;42618;51.226;4.910;2023-05-12T08:23:29;49729.00;;;-146.94;100.00
56737;BME280;42618;51.226;4.910;2023-05-12T08:25:55;49798.78;;;-146.94;100.00
56737;BME280;42618;51.226;4.910;2023-05-12T08:28:22;49778.84;;;-146.94;100.00
56737;BME280;42618;51.226;4.910;2023-05-12T08:30:49;49740.97;;;-146.94;100.00
56737;BME280;42618;51.226;4.910;2023-05-12T08:33:16;49754.91;;;-146.94;100.00
56737;BME280;42618;51.226;4.910;2023-05-12T08:35:43;49752.91;;;-146.94;100.00
56737;BME280;42618;51.226;4.910;2023-05-12T08:38:09;49750.94;;;-146.94;100.00
56737;BME280;42618;51.226;4.910;2023-05-12T08:43:37;49746.94;;;-146.94;100.00
56737;BME280;42618;51.226;4.910;2023-05-12T08:46:06;49736.97;;;-146.94;100.00
56737;BME280;42618;51.226;4.910;2023-05-12T08:48:33;49727.00;;;-146.94;100.00
56737;BME280;42618;51.226;4.910;2023-05-12T08:51:01;49723.03;;;-146.94;100.00
56737;BME280;42618;51.226;4.910;2023-05-12T08:53:28;49738.97;;;-146.94;100.00
56737;BME280;42618;51.226;4.910;2023-05-12T08:55:56;49748.94;;;-146.94;100.00
56737;BME280;42618;51.226;4.910;2023-05-12T08:58:45;49738.97;;;-146.94;100.00
56737;BME280;42618;51.226;4.910;2023-05-12T09:01:13;49750.94;;;-146.94;100.00
56737;BME280;42618;51.226;4.910;2023-05-12T09:03:41;49740.97;;;-146.94;100.00
56737;BME280;42618;51.226;4.910;2023-05-12T09:06:08;49740.97;;;-146.94;100.00
56737;BME280;42618;51.226;4.910;2023-05-12T09:08:37;49701.09;;;-146.94;100.00
56737;BME280;42618;51.226;4.910;2023-05-12T09:11:04;49754.91;;;-146.94;98.61
56737;BME280;42618;51.226;4.910;2023-05-12T09:13:53;49742.94;;;-146.94;99.17
56737;BME280;42618;51.226;4.910;2023-05-12T09:16:28;49762.88;;;-146.94;97.60
56737;BME280;42618;51.226;4.910;2023-05-12T09:18:58;49742.94;;;-146.94;96.54
56737;BME280;42618;51.226;4.910;2023-05-12T09:21:26;49731.00;;;-146.94;96.83
56737;BME280;42618;51.226;4.910;2023-05-12T09:23:58;49711.06;;;-146.94;96.83
56737;BME280;42618;51.226;4.910;2023-05-12T09:26:27;49727.00;;;-146.94;96.93
56737;BME280;42618;51.226;4.910;2023-05-12T09:29:04;49738.97;;;-146.94;97.75
56737;BME280;42618;51.226;4.910;2023-05-12T09:31:34;49802.75;;;-146.94;97.46
56737;BME280;42618;51.226;4.910;2023-05-12T09:34:06;49705.06;;;-146.94;97.04
56737;BME280;42618;51.226;4.910;2023-05-12T09:36:33;49742.94;;;-146.94;98.30
56737;BME280;42618;51.226;4.910;2023-05-12T09:39:04;49727.00;;;-146.94;95.49
56737;BME280;42618;51.226;4.910;2023-05-12T09:44:03;49713.06;;;-146.94;90.40
56737;BME280;42618;51.226;4.910;2023-05-12T09:46:30;49719.03;;;-146.94;88.95
56737;BME280;42618;51.226;4.910;2023-05-12T09:48:57;49689.13;;;-146.94;85.15
56737;BME280;42618;51.226;4.910;2023-05-12T09:51:28;49705.06;;;-146.94;87.37
56737;BME280;42618;51.226;4.910;2023-05-12T09:53:56;49719.03;;;-146.94;87.20
56737;BME280;42618;51.226;4.910;2023-05-12T09:56:26;49734.97;;;-146.94;85.08
56737;BME280;42618;51.226;4.910;2023-05-12T09:58:55;49723.03;;;-146.94;87.22
56737;BME280;42618;51.226;4.910;2023-05-12T10:01:25;49734.97;;;-146.94;85.94
56737;BME280;42618;51.226;4.910;2023-05-12T10:03:54;49693.13;;;-146.94;88.30
56737;BME280;42618;51.226;4.910;2023-05-12T10:06:36;49723.03;;;-146.94;87.47
56737;BME280;42618;51.226;4.910;2023-05-12T10:09:12;49711.06;;;-146.94;86.48
56737;BME280;42618;51.226;4.910;2023-05-12T10:11:42;49703.09;;;-146.94;87.27
56737;BME280;42618;51.226;4.910;2023-05-12T10:14:09;49701.09;;;-146.94;85.93
56737;BME280;42618;51.226;4.910;2023-05-12T10:16:37;49691.13;;;-146.94;83.12
56737;BME280;42618;51.226;4.910;2023-05-12T10:19:04;49744.94;;;-146.94;84.38
56737;BME280;42618;51.226;4.910;2023-05-12T10:21:31;49685.13;;;-146.94;84.02
56737;BME280;42618;51.226;4.910;2023-05-12T10:23:59;49723.03;;;-146.94;83.67
56737;BME280;42618;51.226;4.910;2023-05-12T10:26:26;49721.03;;;-146.94;81.68
56737;BME280;42618;51.226;4.910;2023-05-12T10:28:53;49723.03;;;-146.94;83.51
56737;BME280;42618;51.226;4.910;2023-05-12T10:31:21;49723.03;;;-146.94;82.15
56737;BME280;42618;51.226;4.910;2023-05-12T10:33:59;49734.97;;;-146.94;83.65
56737;BME280;42618;51.226;4.910;2023-05-12T10:36:26;49691.13;;;-146.94;82.16
56737;BME280;42618;51.226;4.910;2023-05-12T10:38:53;49671.19;;;-146.94;78.92
56737;BME280;42618;51.226;4.910;2023-05-12T10:41:31;49685.13;;;-146.94;76.47
56737;BME280;42618;51.226;4.910;2023-05-12T10:43:58;49683.16;;;-146.94;74.11
56737;BME280;42618;51.226;4.910;2023-05-12T10:46:25;49697.09;;;-146.94;73.16
56737;BME280;42618;51.226;4.910;2023-05-12T10:49:00;49691.13;;;-146.94;71.60
56737;BME280;42618;51.226;4.910;2023-05-12T10:51:31;49715.03;;;-146.94;73.72
56737;BME280;42618;51.226;4.910;2023-05-12T10:54:01;49707.06;;;-146.94;75.20
56737;BME280;42618;51.226;4.910;2023-05-12T10:56:39;49681.16;;;-146.94;73.61
56737;BME280;42618;51.226;4.910;2023-05-12T11:01:36;49675.19;;;-146.94;72.51
56737;BME280;42618;51.226;4.910;2023-05-12T11:04:15;49703.09;;;-146.94;67.48
56737;BME280;42618;51.226;4.910;2023-05-12T11:06:43;49719.03;;;-146.94;70.04
56737;BME280;42618;51.226;4.910;2023-05-12T11:09:12;49703.09;;;-146.94;66.64
56737;BME280;42618;51.226;4.910;2023-05-12T11:11:39;49663.22;;;-146.94;66.15
56737;BME280;42618;51.226;4.910;2023-05-12T11:14:07;49647.25;;;-146.94;62.87
56737;BME280;42618;51.226;4.910;2023-05-12T11:16:40;49685.13;;;-146.94;60.93
56737;BME280;42618;51.226;4.910;2023-05-12T11:19:07;49655.25;;;-146.94;58.63
56737;BME280;42618;51.226;4.910;2023-05-12T11:21:34;49681.16;;;-146.94;61.47
56737;BME280;42618;51.226;4.910;2023-05-12T11:24:01;49687.13;;;-146.94;58.62
56737;BME280;42618;51.226;4.910;2023-05-12T11:26:28;49655.25;;;-146.94;60.82
56737;BME280;42618;51.226;4.910;2023-05-12T11:28:56;49621.34;;;-146.94;58.44
56737;BME280;42618;51.226;4.910;2023-05-12T11:31:24;49667.19;;;-146.94;58.07
56737;BME280;42618;51.226;4.910;2023-05-12T11:34:04;49617.38;;;-146.94;54.81
56737;BME280;42618;51.226;4.910;2023-05-12T11:36:40;49631.31;;;-146.94;53.67
56737;BME280;42618;51.226;4.910;2023-05-12T11:39:21;49655.25;;;-146.94;52.08
56737;BME280;42618;51.226;4.910;2023-05-12T11:41:48;49675.19;;;-146.94;53.75
56737;BME280;42618;51.226;4.910;2023-05-12T11:44:24;49643.28;;;-146.94;54.32
56737;BME280;42618;51.226;4.910;2023-05-12T11:49:22;49609.38;;;-146.94;53.95
56737;BME280;42618;51.226;4.910;2023-05-12T11:51:56;49649.25;;;-146.94;50.44
56737;BME280;42618;51.226;4.910;2023-05-12T11:54:23;49631.31;;;-146.94;51.05
56737;BME280;42618;51.226;4.910;2023-05-12T11:56:52;49645.28;;;-146.94;50.70
56737;BME280;42618;51.226;4.910;2023-05-12T11:59:30;49653.25;;;-146.94;51.34
56737;BME280;42618;51.226;4.910;2023-05-12T12:02:01;49601.41;;;-146.94;51.39
56737;BME280;42618;51.226;4.910;2023-05-12T12:04:39;49639.28;;;-146.94;51.38
56737;BME280;42618;51.226;4.910;2023-05-12T12:07:07;49675.19;;;-146.94;50.94
56737;BME280;42618;51.226;4.910;2023-05-12T12:09:36;49625.34;;;-146.94;50.70
56737;BME280;42618;51.226;4.910;2023-05-12T12:12:04;49639.28;;;-146.94;49.89
56737;BME280;42618;51.226;4.910;2023-05-12T12:14:32;49659.22;;;-146.94;49.58
56737;BME280;42618;51.226;4.910;2023-05-12T12:16:59;49625.34;;;-146.94;48.02
56737;BME280;42618;51.226;4.910;2023-05-12T12:19:26;49589.44;;;-146.94;49.06
56737;BME280;42618;51.226;4.910;2023-05-12T12:21:54;49635.31;;;-146.94;46.46
56737;BME280;42618;51.226;4.910;2023-05-12T12:24:24;49633.31;;;-146.94;46.67
56737;BME280;42618;51.226;4.910;2023-05-12T12:26:51;49653.25;;;-146.94;48.01
56737;BME280;42618;51.226;4.910;2023-05-12T12:29:17;49647.25;;;-146.94;48.04
56737;BME280;42618;51.226;4.910;2023-05-12T12:31:44;49637.28;;;-146.94;48.99
56737;BME280;42618;51.226;4.910;2023-05-12T12:34:11;49643.28;;;-146.94;48.82
56737;BME280;42618;51.226;4.910;2023-05-12T12:36:38;49633.31;;;-146.94;47.72
56737;BME280;42618;51.226;4.910;2023-05-12T12:39:04;49635.31;;;-146.94;46.46
56737;BME280;42618;51.226;4.910;2023-05-12T12:41:31;49623.34;;;-146.94;44.52
56737;BME280;42618;51.226;4.910;2023-05-12T12:43:58;49603.41;;;-146.94;44.17
56737;BME280;42618;51.226;4.910;2023-05-12T12:46:25;49633.31;;;-146.94;45.94
56737;BME280;42618;51.226;4.910;2023-05-12T12:48:52;49609.38;;;-146.94;44.69